Time;durP1;ratioP1;P1;durP2;ratioP2;P2;SDS_P1;SDS_P2;PMS_P1;PMS_P2;Temp;Humidity;BMP_temperature;BMP_pressure;BME280_temperature;BME280_humidity;BME280_pressure;Samples;Min_cycle;Max_cycle;Signal;HPM_P1;HPM_P2
2024/04/18 00:02:23;;;;;;;4.90;1.80;;;;;;;7.31;58.96;99898.38;10844588;27;20353;-59
2024/04/18 00:07:33;;;;;;;6.15;1.50;;;;;;;7.29;59.25;99895.03;10862296;27;20450;-59
2024/04/18 00:12:35;;;;;;;2.75;1.33;;;;;;;7.31;59.40;99893.84;10866989;27;20417;-59
2024/04/18 00:17:37;;;;;;;8.18;1.75;;;;;;;7.35;59.42;99905.88;10869639;27;20003;-59
2024/04/18 00:22:39;;;;;;;5.40;1.27;;;;;;;7.45;59.15;99903.03;10858006;27;20081;-59
2024/04/18 00:27:40;;;;;;;2.78;1.50;;;;;;;7.53;59.52;99900.34;10859555;27;20003;-59
2024/04/18 00:32:42;;;;;;;5.30;1.50;;;;;;;7.52;59.63;99892.50;10834088;27;20010;-59
2024/04/18 00:37:44;;;;;;;7.65;1.23;;;;;;;7.62;59.30;99905.72;10819199;27;20080;-59
2024/04/18 00:42:51;;;;;;;4.93;1.35;;;;;;;7.67;59.67;99898.84;10829729;27;20082;-58
2024/04/18 00:47:55;;;;;;;2.30;1.33;;;;;;;7.63;59.80;99891.34;10810800;27;20480;-59
2024/04/18 00:53:01;;;;;;;4.30;1.30;;;;;;;7.68;59.79;99895.19;10840902;27;20325;-59
2024/04/18 00:58:05;;;;;;;2.63;1.35;;;;;;;7.74;59.77;99894.50;10835267;27;20623;-59
2024/04/18 01:03:07;;;;;;;5.72;1.15;;;;;;;7.83;59.54;99897.16;10790885;27;20056;-58
2024/04/18 01:08:10;;;;;;;2.25;1.30;;;;;;;7.94;59.58;99894.16;10838278;27;20006;-58
2024/04/18 01:13:12;;;;;;;2.17;1.00;;;;;;;7.95;59.57;99901.97;10868212;27;20049;-58
2024/04/18 01:18:14;;;;;;;2.55;0.80;;;;;;;8.01;59.94;99902.31;10873857;27;20030;-58
2024/04/18 01:23:16;;;;;;;1.50;0.75;;;;;;;8.04;59.79;99902.81;10862087;27;20003;-58
2024/04/18 01:28:18;;;;;;;2.90;1.35;;;;;;;8.14;59.67;99914.16;10864106;27;20006;-60
2024/04/18 01:33:19;;;;;;;2.97;0.82;;;;;;;8.20;59.90;99909.16;10868337;27;20081;-61
2024/04/18 01:38:25;;;;;;;2.00;1.02;;;;;;;8.21;59.74;99908.94;10868903;27;20094;-59
2024/04/18 01:43:27;;;;;;;1.50;0.70;;;;;;;8.23;59.81;99914.16;10870739;27;20744;-61
2024/04/18 01:48:28;;;;;;;1.98;0.85;;;;;;;8.18;60.03;99922.69;10851741;27;20102;-60
2024/04/18 01:53:31;;;;;;;2.00;0.90;;;;;;;8.16;60.03;99923.88;10836971;27;20002;-60
2024/04/18 01:58:33;;;;;;;3.15;1.17;;;;;;;8.19;59.95;99928.88;10862830;27;20482;-60
2024/04/18 02:03:34;;;;;;;2.20;1.05;;;;;;;8.18;60.24;99928.06;10874571;27;20007;-59
2024/04/18 02:08:37;;;;;;;3.92;1.45;;;;;;;8.15;60.25;99925.72;10873353;27;20006;-60
2024/04/18 02:13:38;;;;;;;2.10;1.30;;;;;;;8.17;60.25;99931.72;10857043;27;20013;-61
2024/04/18 02:18:40;;;;;;;2.80;1.30;;;;;;;8.14;60.24;99932.91;10844594;27;20022;-59
2024/04/18 02:23:42;;;;;;;2.50;1.63;;;;;;;8.05;60.45;99939.28;10863892;27;20007;-60
2024/04/18 02:28:44;;;;;;;4.63;1.35;;;;;;;7.92;60.96;99949.69;10868754;27;20003;-58
2024/04/18 02:33:45;;;;;;;2.40;1.67;;;;;;;7.70;61.17;99944.00;10859898;27;20094;-59
2024/04/18 02:38:47;;;;;;;4.97;1.98;;;;;;;7.49;61.73;99947.16;10870452;27;20018;-59
2024/04/18 02:43:53;;;;;;;4.28;2.00;;;;;;;7.25;61.96;99956.00;10874869;27;20010;-58
2024/04/18 02:48:56;;;;;;;5.87;2.43;;;;;;;7.13;62.18;99959.97;10863615;27;20035;-58
2024/04/18 02:53:57;;;;;;;3.88;2.28;;;;;;;7.04;62.17;99964.44;10866824;27;20470;-57
2024/04/18 02:58:59;;;;;;;2.75;2.38;;;;;;;7.06;62.27;99966.97;10839712;27;20350;-58
2024/04/18 03:04:01;;;;;;;4.97;1.92;;;;;;;7.14;62.15;99967.00;10866143;27;20024;-60
2024/04/18 03:09:03;;;;;;;4.63;2.45;;;;;;;7.23;61.83;99968.69;10804241;27;20011;-60
2024/04/18 03:14:06;;;;;;;4.18;2.00;;;;;;;7.40;61.81;99966.88;10865526;27;20026;-60
2024/04/18 03:19:11;;;;;;;7.88;2.00;;;;;;;7.47;61.90;99983.09;10859797;27;20480;-60
2024/04/18 03:24:18;;;;;;;4.45;1.83;;;;;;;7.51;61.94;99977.25;10871865;27;20027;-59
2024/04/18 03:29:20;;;;;;;5.28;2.50;;;;;;;7.50;62.07;99985.44;10859326;27;20006;-59
2024/04/18 03:34:21;;;;;;;6.05;1.88;;;;;;;7.63;61.87;99988.47;10863439;27;20354;-59
2024/04/18 03:39:27;;;;;;;4.22;1.55;;;;;;;7.69;61.72;99989.66;10863838;27;20029;-60
2024/04/18 03:44:29;;;;;;;4.70;2.13;;;;;;;7.75;61.58;99989.81;10865913;27;20006;-60
2024/04/18 03:49:31;;;;;;;5.82;1.77;;;;;;;7.83;61.65;100002.34;10867474;27;20034;-60
2024/04/18 03:54:33;;;;;;;9.20;1.92;;;;;;;7.84;61.56;100011.22;10862771;27;20007;-60
2024/04/18 03:59:54;;;;;;;5.65;2.33;;;;;;;7.85;61.60;100010.22;10854066;27;20014;-59
2024/04/18 04:04:56;;;;;;;5.22;2.15;;;;;;;7.80;62.03;100020.56;10830798;27;20026;-59
2024/04/18 04:10:00;;;;;;;5.47;2.38;;;;;;;7.87;61.76;100021.59;10849834;27;20007;-60
2024/04/18 04:15:04;;;;;;;4.28;2.17;;;;;;;7.99;61.71;100028.28;10830633;27;20010;-60
2024/04/18 04:20:13;;;;;;;4.28;2.00;;;;;;;8.09;61.53;100022.75;10856905;27;20088;-59
2024/04/18 04:25:15;;;;;;;4.72;2.13;;;;;;;8.20;61.24;100035.81;10858968;27;20022;-62
2024/04/18 04:30:17;;;;;;;5.00;2.45;;;;;;;8.20;61.47;100048.38;10865741;27;20021;-62
2024/04/18 04:35:18;;;;;;;6.88;2.47;;;;;;;8.21;61.35;100042.81;10857555;27;20042;-62
2024/04/18 04:40:20;;;;;;;4.13;1.70;;;;;;;8.21;61.44;100061.56;10860282;27;20018;-61
2024/04/18 04:45:22;;;;;;;2.80;1.65;;;;;;;8.12;61.38;100066.09;10865097;27;19999;-61
2024/04/18 04:50:24;;;;;;;4.22;1.90;;;;;;;8.08;61.40;100074.63;10872558;27;20338;-61
2024/04/18 04:55:26;;;;;;;2.97;2.05;;;;;;;7.83;61.88;100079.13;10861129;27;20007;-61
2024/04/18 05:00:29;;;;;;;4.07;2.47;;;;;;;7.74;61.87;100080.94;10877991;27;20459;-62
2024/04/18 05:05:34;;;;;;;5.57;2.05;;;;;;;7.76;61.61;100089.66;10784626;27;20007;-61
2024/04/18 05:10:41;;;;;;;5.75;2.30;;;;;;;7.78;61.76;100092.16;10802476;27;20007;-61
2024/04/18 05:15:43;;;;;;;3.83;2.45;;;;;;;7.97;61.38;100101.72;10816572;27;21005;-61
2024/04/18 05:20:47;;;;;;;3.72;1.83;;;;;;;8.22;61.03;100110.63;10835675;27;20007;-61
2024/04/18 05:25:48;;;;;;;4.35;2.17;;;;;;;8.40;60.84;100118.50;10871202;27;20013;-60
2024/04/18 05:31:00;;;;;;;4.43;1.80;;;;;;;8.59;60.76;100122.69;10780704;27;20011;-61
2024/04/18 05:36:03;;;;;;;2.78;1.48;;;;;;;8.72;60.68;100134.56;10877036;27;19998;-61
2024/04/18 05:41:16;;;;;;;3.20;1.67;;;;;;;8.84;60.37;100137.72;10846904;27;20011;-57
2024/04/18 05:46:26;;;;;;;2.90;1.80;;;;;;;8.84;60.83;100134.22;10894342;27;20017;-57
2024/04/18 05:51:28;;;;;;;5.10;1.50;;;;;;;8.96;60.20;100140.88;10905989;27;20065;-62
2024/04/18 05:56:31;;;;;;;5.10;1.83;;;;;;;9.05;60.15;100147.91;10864847;27;20003;-62
2024/04/18 06:01:33;;;;;;;3.05;1.60;;;;;;;9.28;60.22;100149.84;10865667;27;20017;-62
2024/04/18 06:06:37;;;;;;;7.72;2.42;;;;;;;9.36;60.34;100162.41;10813849;27;20096;-62
2024/04/18 06:11:45;;;;;;;3.60;2.17;;;;;;;9.28;60.49;100174.00;10839664;27;20081;-62
2024/04/18 06:16:48;;;;;;;3.40;2.13;;;;;;;9.21;60.48;100175.72;10818762;27;20026;-62
2024/04/18 06:21:52;;;;;;;3.92;2.25;;;;;;;9.09;60.42;100188.63;10852549;27;20065;-61
2024/04/18 06:26:54;;;;;;;7.82;3.00;;;;;;;8.86;60.90;100197.34;10835637;27;20339;-62
2024/04/18 06:31:56;;;;;;;5.90;2.53;;;;;;;8.94;60.72;100199.19;10865296;27;20011;-62
2024/04/18 06:36:58;;;;;;;5.22;2.08;;;;;;;9.10;60.22;100209.06;10871387;27;20013;-61
2024/04/18 06:42:00;;;;;;;3.85;2.13;;;;;;;9.28;59.97;100219.59;10873705;27;20021;-62
2024/04/18 06:47:02;;;;;;;3.30;2.25;;;;;;;9.52;59.77;100221.41;10838610;27;20007;-61
2024/04/18 06:52:04;;;;;;;3.78;2.03;;;;;;;9.71;59.38;100226.34;10861456;27;20111;-62
2024/04/18 06:57:06;;;;;;;6.63;2.00;;;;;;;9.77;59.32;100232.03;10869587;27;19999;-62
2024/04/18 07:02:09;;;;;;;3.42;2.33;;;;;;;9.76;59.23;100235.75;10859025;27;20410;-67
2024/04/18 07:07:11;;;;;;;5.03;2.17;;;;;;;9.93;58.46;100230.13;10861007;27;20053;-64
2024/04/18 07:12:14;;;;;;;4.60;1.70;;;;;;;10.28;58.41;100235.97;10859601;27;20018;-68
2024/04/18 07:17:17;;;;;;;2.85;1.30;;;;;;;10.67;57.25;100245.00;10811153;27;20018;-69
2024/04/18 07:22:20;;;;;;;3.63;1.80;;;;;;;10.57;57.48;100241.72;10835503;27;20017;-68
2024/04/18 07:27:21;;;;;;;3.78;2.13;;;;;;;10.56;57.63;100256.16;10859566;27;20341;-63
2024/04/18 07:32:23;;;;;;;3.75;1.98;;;;;;;10.34;57.71;100258.66;10871687;27;20017;-69
2024/04/18 07:37:25;;;;;;;6.57;2.08;;;;;;;10.36;57.67;100272.75;10868773;27;20058;-68
2024/04/18 07:42:29;;;;;;;5.47;1.95;;;;;;;10.37;57.89;100278.94;10863808;27;20003;-68
2024/04/18 07:47:31;;;;;;;3.75;2.00;;;;;;;10.44;56.98;100280.75;10863033;27;20080;-64
2024/04/18 07:52:34;;;;;;;4.97;2.50;;;;;;;10.64;57.03;100283.84;10829895;27;20094;-67
2024/04/18 07:57:37;;;;;;;4.25;2.22;;;;;;;10.76;57.02;100297.69;10859889;27;20414;-67
2024/04/18 08:02:39;;;;;;;5.07;2.78;;;;;;;11.03;56.06;100300.88;10863893;27;20007;-66
2024/04/18 08:07:44;;;;;;;9.07;2.80;;;;;;;10.82;56.77;100305.06;10847773;27;20025;-69
2024/04/18 08:12:49;;;;;;;4.47;2.65;;;;;;;10.87;56.23;100305.34;10838614;27;20080;-61
2024/04/18 08:17:56;;;;;;;5.23;2.87;;;;;;;11.10;56.47;100313.41;10830473;27;20006;-60
2024/04/18 08:22:58;;;;;;;6.22;4.10;;;;;;;11.26;55.95;100317.81;10854182;27;20003;-62
2024/04/18 08:28:00;;;;;;;5.10;2.50;;;;;;;11.39;55.61;100329.81;10847183;27;20003;-61
2024/04/18 08:33:02;;;;;;;6.95;3.05;;;;;;;11.50;55.19;100332.91;10866027;27;20019;-60
2024/04/18 08:38:04;;;;;;;5.28;2.53;;;;;;;11.61;55.21;100347.81;10866690;27;20030;-62
2024/04/18 08:43:05;;;;;;;6.00;2.47;;;;;;;11.56;55.48;100354.75;10859340;27;20002;-62
2024/04/18 08:48:10;;;;;;;8.02;2.95;;;;;;;11.69;55.25;100353.09;10864555;27;20099;-62
2024/04/18 08:53:13;;;;;;;3.20;2.60;;;;;;;11.34;55.38;100365.38;10848168;27;20017;-62
2024/04/18 08:58:16;;;;;;;4.93;2.20;;;;;;;11.31;55.33;100365.72;10856967;27;20003;-62
2024/04/18 09:03:19;;;;;;;4.10;2.60;;;;;;;11.25;55.26;100369.13;10826592;27;20014;-62
2024/04/18 09:08:21;;;;;;;3.33;2.25;;;;;;;11.57;54.90;100372.56;10927890;27;20012;-57
2024/04/18 09:13:24;;;;;;;4.63;2.08;;;;;;;12.07;54.08;100380.00;10958374;27;20323;-57
2024/04/18 09:18:33;;;;;;;5.00;2.25;;;;;;;12.26;53.59;100378.63;10886057;27;20011;-58
2024/04/18 09:23:35;;;;;;;3.33;2.15;;;;;;;12.36;53.47;100385.59;10861460;27;20007;-61
2024/04/18 09:28:39;;;;;;;3.40;2.17;;;;;;;12.55;53.16;100384.19;10860262;27;20419;-61
2024/04/18 09:33:42;;;;;;;3.85;2.13;;;;;;;13.07;52.06;100381.28;10867243;27;20003;-61
2024/04/18 09:38:48;;;;;;;2.75;1.88;;;;;;;13.64;51.22;100382.22;10874120;27;20013;-62
2024/04/18 09:44:17;;;;;;;5.03;2.50;;;;;;;13.63;51.32;100383.28;10871373;27;20423;-61
2024/04/18 09:49:20;;;;;;;4.25;2.60;;;;;;;13.50;51.26;100399.34;10853989;27;20007;-61
2024/04/18 09:54:22;;;;;;;5.85;2.50;;;;;;;13.15;51.52;100395.66;10863216;27;20006;-65
2024/04/18 09:59:26;;;;;;;4.53;3.10;;;;;;;13.06;51.23;100403.06;10871374;27;20025;-65
2024/04/18 10:04:29;;;;;;;6.70;2.50;;;;;;;13.58;50.36;100398.38;10839201;27;20063;-65
2024/04/18 10:09:32;;;;;;;4.43;2.05;;;;;;;14.15;49.54;100393.81;10863914;27;20002;-65
2024/04/18 10:14:36;;;;;;;5.90;1.98;;;;;;;14.27;49.27;100386.81;10830779;27;20010;-65
2024/04/18 10:19:41;;;;;;;2.67;1.85;;;;;;;14.14;49.35;100389.44;10834120;27;20043;-65
2024/04/18 10:24:49;;;;;;;2.60;1.70;;;;;;;20.31;38.89;100348.72;10874791;27;20006;-65
2024/04/18 10:29:57;;;;;;;;;;;;;;;26.05;32.13;100355.50;10826452;27;20021;-65
2024/04/18 10:34:59;;;;;;;1.83;1.30;;;;;;;24.06;33.64;100382.22;10875252;27;20363;-61
2024/04/18 10:40:03;;;;;;;3.80;1.40;;;;;;;21.50;37.96;100390.94;10917896;27;20013;-59
2024/04/18 10:45:06;;;;;;;2.58;1.05;;;;;;;20.68;38.97;100392.13;10869405;27;20038;-59
2024/04/18 10:50:08;;;;;;;2.00;1.40;;;;;;;19.68;39.85;100399.34;10875947;27;20007;-59
2024/04/18 10:55:10;;;;;;;2.38;1.30;;;;;;;19.07;39.58;100412.22;10906503;27;20018;-60
2024/04/18 11:00:16;;;;;;;2.25;1.20;;;;;;;18.28;40.09;100411.28;10946879;27;20006;-59
2024/04/18 11:05:18;;;;;;;2.00;1.10;;;;;;;18.16;40.07;100409.28;10947350;27;20092;-61
2024/04/18 11:10:24;;;;;;;4.00;1.23;;;;;;;18.55;39.17;100406.38;10904370;27;20007;-60
2024/04/18 11:15:26;;;;;;;1.40;0.88;;;;;;;19.00;38.71;100395.16;10913700;27;19999;-59
2024/04/18 11:20:29;;;;;;;1.88;0.88;;;;;;;19.48;37.38;100386.03;10902432;27;20006;-59
2024/04/18 11:25:32;;;;;;;2.15;1.17;;;;;;;19.78;36.67;100386.00;10896912;27;20017;-59
2024/04/18 11:30:42;;;;;;;3.67;1.10;;;;;;;19.43;37.33;100402.25;10892191;27;20030;-59
2024/04/18 11:35:44;;;;;;;1.50;1.02;;;;;;;18.82;38.98;100410.47;10862471;27;20018;-60
2024/04/18 11:40:46;;;;;;;2.45;1.02;;;;;;;20.00;36.56;100385.41;10863910;27;20010;-61
2024/04/18 11:45:49;;;;;;;1.08;0.65;;;;;;;26.90;27.01;100371.97;10859460;27;20444;-63
2024/04/18 11:50:51;;;;;;;2.60;0.80;;;;;;;30.75;23.54;100374.38;10857255;27;20343;-62
2024/04/18 11:55:52;;;;;;;1.27;0.90;;;;;;;33.75;20.74;100375.84;10867269;27;20035;-64
2024/04/18 12:00:56;;;;;;;1.05;0.70;;;;;;;35.58;19.19;100362.75;10831413;27;21613;-64
2024/04/18 12:05:58;;;;;;;1.52;0.77;;;;;;;37.51;17.18;100365.34;10857051;27;20017;-65
2024/04/18 12:11:00;;;;;;;0.95;0.50;;;;;;;38.33;16.60;100366.69;10853393;27;20003;-65
2024/04/18 12:16:02;;;;;;;0.50;0.40;;;;;;;39.52;16.15;100370.16;10861251;27;20287;-66
2024/04/18 12:21:03;;;;;;;1.00;0.40;;;;;;;41.17;14.42;100372.81;10864952;27;20026;-65
2024/04/18 12:26:05;;;;;;;1.25;0.40;;;;;;;37.15;16.71;100369.97;10856207;27;20074;-66
2024/04/18 12:31:07;;;;;;;1.30;0.20;;;;;;;29.78;21.00;100397.31;10866755;27;20414;-65
2024/04/18 12:36:13;;;;;;;0.55;0.20;;;;;;;25.63;23.26;100400.66;10869328;27;20017;-64
2024/04/18 12:41:14;;;;;;;0.65;0.20;;;;;;;24.53;23.51;100392.41;10867852;27;20010;-64
2024/04/18 12:46:16;;;;;;;0.20;0.20;;;;;;;26.81;20.55;100379.19;10866672;27;20022;-64
2024/04/18 12:51:24;;;;;;;1.85;0.47;;;;;;;28.32;18.90;100366.66;10842624;27;20003;-64
2024/04/18 12:56:26;;;;;;;0.60;0.30;;;;;;;28.95;18.88;100368.38;10867271;27;20539;-61
2024/04/18 13:01:28;;;;;;;0.60;0.30;;;;;;;32.13;16.96;100365.47;10868608;27;20014;-60
2024/04/18 13:06:30;;;;;;;1.75;0.30;;;;;;;32.47;16.49;100363.13;10874616;27;20010;-60
2024/04/18 13:11:31;;;;;;;1.10;0.30;;;;;;;30.28;18.79;100371.69;10867267;27;20440;-60
2024/04/18 13:16:34;;;;;;;5.88;0.30;;;;;;;27.28;21.12;100375.06;10870039;27;20003;-59
2024/04/18 13:21:36;;;;;;;0.47;0.30;;;;;;;24.11;23.43;100382.28;10854389;27;20011;-61
2024/04/18 13:26:38;;;;;;;1.60;0.40;;;;;;;22.11;24.89;100391.06;10870481;27;20015;-59
2024/04/18 13:31:40;;;;;;;0.40;0.20;;;;;;;23.04;23.52;100384.06;10847590;27;20018;-59
2024/04/18 13:36:42;;;;;;;0.88;0.20;;;;;;;25.40;21.19;100386.34;10860347;27;20002;-62
2024/04/18 13:41:45;;;;;;;3.05;0.40;;;;;;;23.09;23.28;100400.59;10865030;27;20489;-62
2024/04/18 13:46:47;;;;;;;1.00;0.40;;;;;;;24.37;22.32;100385.16;10860300;27;20021;-61
2024/04/18 13:51:48;;;;;;;0.85;0.32;;;;;;;25.68;21.25;100384.16;10864910;27;20341;-62
2024/04/18 13:56:50;;;;;;;0.68;0.55;;;;;;;25.66;21.31;100380.84;10860007;27;20021;-62
2024/04/18 14:01:52;;;;;;;0.40;0.22;;;;;;;26.51;20.55;100363.59;10847276;27;20423;-59
2024/04/18 14:06:55;;;;;;;0.80;0.35;;;;;;;26.26;20.59;100368.09;10865021;27;20002;-62
2024/04/18 14:11:56;;;;;;;0.30;0.22;;;;;;;24.29;22.31;100388.38;10861418;27;20002;-63
2024/04/18 14:22:20;;;;;;;0.73;0.13;;;;;;;21.98;24.48;100386.78;10819669;27;20003;-75
2024/04/18 14:27:23;;;;;;;0.17;0.17;;;;;;;22.76;23.92;100386.75;10826783;27;20065;-73
2024/04/18 14:32:26;;;;;;;0.65;0.20;;;;;;;21.67;24.72;100393.69;10822702;27;20003;-73
2024/04/18 14:37:29;;;;;;;0.63;0.25;;;;;;;19.98;25.94;100404.78;10875790;27;20082;-65
2024/04/18 14:42:31;;;;;;;0.63;0.22;;;;;;;19.47;26.95;100405.34;10873753;27;20011;-70
2024/04/18 14:47:33;;;;;;;0.40;0.30;;;;;;;18.39;27.75;100405.91;10874754;27;20007;-77
2024/04/18 14:52:36;;;;;;;0.77;0.20;;;;;;;17.98;28.17;100401.94;10864662;27;20072;-75
2024/04/18 14:57:38;;;;;;;0.38;0.25;;;;;;;17.59;28.77;100412.03;10841481;27;20366;-70
2024/04/18 15:02:39;;;;;;;1.42;0.30;;;;;;;18.33;27.95;100400.56;10870072;27;20673;-73
2024/04/18 15:07:44;;;;;;;1.95;0.40;;;;;;;18.68;28.07;100408.09;10872224;27;20021;-66
2024/04/18 15:12:46;;;;;;;0.77;0.30;;;;;;;19.27;28.00;100400.22;10877095;27;20015;-74
2024/04/18 15:17:48;;;;;;;0.73;0.30;;;;;;;18.41;28.74;100395.63;10864625;27;20014;-71
2024/04/18 15:22:50;;;;;;;1.58;0.40;;;;;;;19.07;27.91;100393.16;10880371;27;20006;-68
2024/04/18 15:27:52;;;;;;;0.88;0.30;;;;;;;18.80;28.23;100401.69;10861049;27;19999;-68
2024/04/18 15:32:54;;;;;;;2.20;0.40;;;;;;;18.41;28.27;100398.34;10838603;27;20014;-70
2024/04/18 15:37:56;;;;;;;1.33;0.40;;;;;;;18.45;27.95;100396.00;10884028;27;20058;-70
2024/04/18 15:42:57;;;;;;;0.60;0.30;;;;;;;19.16;26.68;100391.78;10843278;27;20030;-68
2024/04/18 15:47:59;;;;;;;2.22;0.47;;;;;;;18.65;27.53;100389.50;10872827;27;20014;-69
2024/04/18 15:53:01;;;;;;;2.50;0.40;;;;;;;18.74;27.50;100388.97;10872775;27;20006;-67
2024/04/18 15:58:03;;;;;;;0.98;0.32;;;;;;;18.76;27.49;100388.72;10855049;27;20014;-70
2024/04/18 16:03:05;;;;;;;2.65;0.40;;;;;;;18.68;27.91;100391.75;10840958;27;20053;-70
2024/04/18 16:08:07;;;;;;;1.17;0.28;;;;;;;18.49;28.32;100399.13;10865737;27;20081;-71
2024/04/18 16:13:11;;;;;;;1.33;0.30;;;;;;;18.57;27.94;100398.81;10865374;27;20021;-65
2024/04/18 16:18:13;;;;;;;0.70;0.20;;;;;;;18.42;28.45;100401.88;10881807;27;20054;-70
2024/04/18 16:23:15;;;;;;;1.00;0.30;;;;;;;18.42;28.21;100415.50;10878057;27;20031;-67
2024/04/18 16:28:19;;;;;;;0.65;0.25;;;;;;;18.14;28.72;100410.56;10858982;27;20027;-67
2024/04/18 16:33:20;;;;;;;1.70;0.30;;;;;;;18.13;28.98;100428.78;10855965;27;20035;-68
2024/04/18 16:38:23;;;;;;;1.10;0.30;;;;;;;17.99;29.08;100428.09;10869156;27;20045;-67
2024/04/18 16:43:26;;;;;;;2.17;0.30;;;;;;;17.70;29.55;100434.16;10840084;27;20019;-67
2024/04/18 16:48:27;;;;;;;1.88;0.30;;;;;;;17.87;29.71;100432.59;10844712;27;20545;-63
2024/04/18 16:53:30;;;;;;;0.95;0.30;;;;;;;17.83;30.29;100424.03;10832942;27;20029;-63
2024/04/18 16:58:33;;;;;;;1.75;0.55;;;;;;;17.26;30.80;100423.16;10862110;27;20007;-63
2024/04/18 17:03:34;;;;;;;0.75;0.30;;;;;;;17.16;31.51;100417.34;10864240;27;20342;-63
2024/04/18 17:08:37;;;;;;;4.80;0.47;;;;;;;17.71;31.04;100412.16;10866294;27;20524;-63
2024/04/18 17:13:38;;;;;;;0.93;0.25;;;;;;;17.57;30.96;100426.91;10862529;27;20011;-63
2024/04/18 17:18:40;;;;;;;1.70;0.30;;;;;;;18.21;29.93;100420.34;10869341;27;20015;-63
2024/04/18 17:23:42;;;;;;;2.35;0.40;;;;;;;17.64;31.07;100436.69;10863730;27;20002;-63
2024/04/18 17:28:43;;;;;;;4.22;0.40;;;;;;;17.38;30.90;100445.03;10866153;27;20007;-63
2024/04/18 17:33:46;;;;;;;2.25;0.30;;;;;;;16.65;31.04;100438.88;10852916;27;20021;-65
2024/04/18 17:38:49;;;;;;;1.40;0.20;;;;;;;15.94;31.96;100452.34;10863606;27;20002;-70
2024/04/18 17:43:50;;;;;;;1.88;0.20;;;;;;;15.29;32.70;100460.16;10865350;27;19999;-68
2024/04/18 17:48:53;;;;;;;1.77;0.30;;;;;;;14.72;33.50;100471.16;10845753;27;20011;-67
2024/04/18 17:53:55;;;;;;;2.10;0.20;;;;;;;14.28;33.91;100475.03;10857538;27;20011;-69
2024/04/18 17:58:57;;;;;;;3.28;0.55;;;;;;;13.98;33.93;100483.34;10860936;27;20093;-66
2024/04/18 18:03:59;;;;;;;0.80;0.25;;;;;;;13.53;34.12;100490.81;10861577;27;20374;-67
2024/04/18 18:09:00;;;;;;;3.25;0.30;;;;;;;13.27;34.68;100489.47;10833550;27;20022;-62
2024/04/18 18:14:02;;;;;;;1.73;0.30;;;;;;;13.13;34.52;100489.47;10864793;27;20007;-69
2024/04/18 18:19:04;;;;;;;5.47;0.60;;;;;;;13.02;34.79;100493.50;10860255;27;20482;-68
2024/04/18 18:24:06;;;;;;;1.63;0.40;;;;;;;12.84;35.10;100497.44;10870284;27;20014;-65
2024/04/18 18:29:10;;;;;;;1.05;0.45;;;;;;;12.75;35.13;100513.91;10856943;27;20022;-64
2024/04/18 18:34:14;;;;;;;2.78;0.30;;;;;;;12.57;35.30;100511.56;10857466;27;20061;-69
2024/04/18 18:39:16;;;;;;;0.77;0.40;;;;;;;12.46;35.89;100518.25;10870077;27;20077;-70
2024/04/18 18:44:17;;;;;;;2.42;0.40;;;;;;;12.34;35.60;100515.16;10861350;27;20017;-62
2024/04/18 18:49:25;;;;;;;0.93;0.40;;;;;;;12.15;35.96;100521.91;10857524;27;20007;-62
2024/04/18 18:54:27;;;;;;;3.33;0.30;;;;;;;12.06;35.88;100540.00;10863994;27;20588;-62
2024/04/18 18:59:29;;;;;;;1.42;0.20;;;;;;;11.93;36.21;100534.41;10833174;27;20002;-62
2024/04/18 19:04:31;;;;;;;2.00;0.40;;;;;;;11.89;36.45;100541.16;10862577;27;20110;-62
2024/04/18 19:09:38;;;;;;;1.58;0.20;;;;;;;11.73;36.55;100542.09;10862512;27;20017;-62
2024/04/18 19:14:39;;;;;;;2.17;0.20;;;;;;;11.58;36.64;100544.69;10855835;27;20007;-62
2024/04/18 19:19:41;;;;;;;2.17;0.43;;;;;;;11.47;37.41;100547.78;10860619;27;20003;-62
2024/04/18 19:24:45;;;;;;;0.98;0.28;;;;;;;11.43;37.69;100546.47;10841324;27;20003;-62
2024/04/18 19:29:48;;;;;;;1.75;0.20;;;;;;;11.30;37.71;100547.88;10857976;27;20011;-62
2024/04/18 19:34:53;;;;;;;1.45;0.30;;;;;;;11.19;38.35;100545.56;10854715;27;20011;-61
2024/04/18 19:39:55;;;;;;;2.60;0.43;;;;;;;11.08;38.54;100544.13;10854849;27;20007;-61
2024/04/18 19:44:58;;;;;;;0.70;0.20;;;;;;;11.06;39.31;100545.31;10863703;27;20010;-62
2024/04/18 19:50:01;;;;;;;2.58;1.38;;;;;;;10.94;39.37;100552.94;10863361;27;20011;-61
2024/04/18 19:55:03;;;;;;;4.57;0.43;;;;;;;10.76;39.73;100552.28;10867312;27;20022;-64
2024/04/18 20:00:06;;;;;;;0.75;0.40;;;;;;;10.70;40.15;100548.44;10831733;27;20474;-64
2024/04/18 20:05:08;;;;;;;1.67;0.40;;;;;;;10.65;40.16;100543.59;10862311;27;20030;-63
2024/04/18 20:10:10;;;;;;;1.45;0.40;;;;;;;10.54;41.00;100554.69;10860489;27;20021;-62
2024/04/18 20:15:12;;;;;;;0.60;0.40;;;;;;;10.51;41.18;100550.50;10855281;27;20040;-63
2024/04/18 20:20:14;;;;;;;0.85;0.20;;;;;;;10.44;40.59;100538.75;10862193;27;20010;-64
2024/04/18 20:25:17;;;;;;;1.70;0.22;;;;;;;10.50;41.43;100518.41;10871097;27;20010;-64
2024/04/18 20:30:19;;;;;;;1.02;0.30;;;;;;;10.41;41.04;100528.34;10862602;27;20058;-64
2024/04/18 20:35:20;;;;;;;1.80;0.25;;;;;;;10.38;41.30;100523.31;10860341;27;20111;-66
2024/04/18 20:40:24;;;;;;;2.58;0.57;;;;;;;10.40;41.33;100525.81;10858782;27;20350;-65
2024/04/18 20:45:26;;;;;;;1.23;0.50;;;;;;;10.36;41.61;100536.06;10832239;27;20006;-65
2024/04/18 20:50:32;;;;;;;0.45;0.28;;;;;;;10.31;41.71;100541.13;10862037;27;20022;-65
2024/04/18 20:55:34;;;;;;;0.63;0.28;;;;;;;10.28;41.67;100547.63;10856958;27;20522;-64
2024/04/18 21:00:43;;;;;;;0.32;0.28;;;;;;;10.28;41.84;100553.00;10857966;27;20389;-63
2024/04/18 21:05:46;;;;;;;2.65;0.47;;;;;;;10.25;42.54;100547.16;10857361;27;20003;-65
2024/04/18 21:10:48;;;;;;;1.08;0.30;;;;;;;10.21;42.69;100545.78;10848045;27;20024;-65
2024/04/18 21:16:00;;;;;;;1.90;0.38;;;;;;;10.25;42.72;100541.78;10848566;27;21100;-65
2024/04/18 21:21:02;;;;;;;4.20;0.40;;;;;;;10.29;42.80;100548.50;10796882;27;20039;-63
2024/04/18 21:26:05;;;;;;;0.60;0.30;;;;;;;10.26;43.08;100538.06;10839518;27;20002;-66
2024/04/18 21:31:08;;;;;;;1.35;0.50;;;;;;;10.22;43.38;100542.09;10838079;27;20012;-65
2024/04/18 21:36:11;;;;;;;5.03;0.57;;;;;;;10.17;43.17;100529.19;10737754;27;20011;-65
2024/04/18 21:41:15;;;;;;;2.15;0.50;;;;;;;10.12;43.66;100536.91;10862337;27;20385;-64
2024/04/18 21:46:17;;;;;;;2.78;0.95;;;;;;;10.06;43.83;100516.94;10863909;27;20007;-66
2024/04/18 21:51:19;;;;;;;2.58;0.60;;;;;;;9.98;44.16;100511.56;10870563;27;20018;-65
2024/04/18 21:56:21;;;;;;;3.17;0.40;;;;;;;9.86;44.43;100512.91;10856334;27;20022;-62
2024/04/18 22:01:27;;;;;;;1.65;0.40;;;;;;;9.78;44.83;100518.28;10822563;27;20080;-66
2024/04/18 22:06:29;;;;;;;4.20;0.63;;;;;;;9.76;45.07;100517.59;10853339;27;20017;-66
2024/04/18 22:11:31;;;;;;;4.13;0.40;;;;;;;9.75;45.25;100514.06;10836312;27;20022;-59
2024/04/18 22:16:34;;;;;;;1.80;0.45;;;;;;;9.83;44.92;100521.28;10857101;27;20021;-59
2024/04/18 22:21:38;;;;;;;3.08;0.60;;;;;;;9.87;45.61;100512.75;10758962;27;20674;-60
2024/04/18 22:26:41;;;;;;;1.48;0.60;;;;;;;9.88;45.70;100510.91;10819494;27;20011;-59
2024/04/18 22:31:47;;;;;;;2.38;0.52;;;;;;;9.90;46.13;100508.88;10852103;27;19999;-59
2024/04/18 22:36:49;;;;;;;4.47;0.47;;;;;;;9.90;46.59;100506.19;10855240;27;20362;-57
2024/04/18 22:41:51;;;;;;;1.77;0.60;;;;;;;9.88;46.91;100508.22;10858613;27;20618;-57
2024/04/18 22:46:53;;;;;;;2.05;0.52;;;;;;;9.92;47.30;100498.81;10862091;27;20018;-60
2024/04/18 22:51:54;;;;;;;0.70;0.50;;;;;;;9.96;47.34;100502.00;10870862;27;20011;-59
2024/04/18 22:56:58;;;;;;;4.50;0.47;;;;;;;10.01;47.22;100497.81;10868281;27;20014;-59
2024/04/18 23:01:59;;;;;;;1.42;0.40;;;;;;;10.03;47.51;100492.25;10870624;27;20010;-58
2024/04/18 23:07:01;;;;;;;1.98;0.50;;;;;;;10.08;47.27;100484.53;10861938;27;20027;-57
2024/04/18 23:12:03;;;;;;;0.82;0.47;;;;;;;10.04;47.91;100481.34;10866432;27;20045;-58
2024/04/18 23:17:05;;;;;;;0.77;0.40;;;;;;;9.98;47.61;100473.97;10864371;27;20004;-58
2024/04/18 23:22:07;;;;;;;3.15;0.30;;;;;;;9.91;48.20;100468.44;10860988;27;20628;-59
2024/04/18 23:27:09;;;;;;;0.70;0.35;;;;;;;9.89;47.63;100473.13;10862749;27;20358;-62